createdAt,value
2022-09-14T00:01:27.604Z,14.10
2022-09-14T00:03:57.682Z,14.10
2022-09-14T00:06:25.118Z,14.10
2022-09-14T00:08:54.805Z,14.10
2022-09-14T00:11:23.824Z,14.10
2022-09-14T00:13:51.858Z,14.10
2022-09-14T00:16:22.486Z,14.00
2022-09-14T00:18:54.735Z,14.00
2022-09-14T00:21:23.764Z,14.00
2022-09-14T00:23:51.594Z,14.00
2022-09-14T00:26:23.643Z,14.00
2022-09-14T00:28:54.365Z,14.10
2022-09-14T00:31:22.716Z,14.10
2022-09-14T00:33:51.333Z,14.10
2022-09-14T00:36:24.189Z,14.10
2022-09-14T00:38:51.769Z,14.20
2022-09-14T00:41:22.593Z,14.20
2022-09-14T00:44:00.378Z,14.30
2022-09-14T00:46:30.068Z,14.40
2022-09-14T00:49:02.155Z,14.40
2022-09-14T00:51:33.027Z,14.40
2022-09-14T00:54:04.772Z,14.50
2022-09-14T00:56:32.328Z,14.60
2022-09-14T00:59:17.533Z,14.60
2022-09-14T01:01:45.469Z,14.70
2022-09-14T01:04:12.882Z,14.80
2022-09-14T01:06:52.585Z,14.80
2022-09-14T01:09:45.199Z,14.90
2022-09-14T01:12:39.106Z,14.90
2022-09-14T01:15:17.889Z,14.90
2022-09-14T01:18:40.648Z,14.90
2022-09-14T01:21:12.453Z,14.90
2022-09-14T01:24:12.183Z,15.00
2022-09-14T01:27:19.945Z,15.00
2022-09-14T01:30:03.392Z,15.00
2022-09-14T01:33:06.042Z,15.10
2022-09-14T01:35:38.263Z,15.10
2022-09-14T01:38:16.343Z,15.20
2022-09-14T01:40:49.503Z,15.20
2022-09-14T01:43:36.213Z,15.30
2022-09-14T01:46:17.653Z,15.30
2022-09-14T01:49:22.504Z,15.30
2022-09-14T01:52:05.229Z,15.30
2022-09-14T01:54:37.529Z,15.30
2022-09-14T01:57:14.310Z,15.30
2022-09-14T01:59:47.275Z,15.30
2022-09-14T02:02:30.279Z,15.30
2022-09-14T02:05:29.491Z,15.30
2022-09-14T02:07:57.394Z,15.30
2022-09-14T02:10:25.900Z,15.30
2022-09-14T02:12:54.677Z,15.30
2022-09-14T02:15:23.150Z,15.30
2022-09-14T02:17:50.549Z,15.30
2022-09-14T02:20:35.269Z,15.30
2022-09-14T02:23:03.447Z,15.30
2022-09-14T02:25:31.994Z,15.30
2022-09-14T02:27:59.302Z,15.30
2022-09-14T02:30:33.873Z,15.20
2022-09-14T02:33:15.657Z,15.20
2022-09-14T02:35:50.090Z,15.20
2022-09-14T02:38:40.656Z,15.10
2022-09-14T02:41:18.822Z,15.10
2022-09-14T02:44:10.113Z,15.20
2022-09-14T02:46:52.310Z,15.20
2022-09-14T02:49:48.204Z,15.20
2022-09-14T02:52:26.115Z,15.20
2022-09-14T02:55:00.649Z,15.30
2022-09-14T02:57:28.001Z,15.20
2022-09-14T02:59:55.597Z,15.30
2022-09-14T03:02:23.441Z,15.20
2022-09-14T03:04:50.850Z,15.30
2022-09-14T03:07:18.179Z,15.20
2022-09-14T03:09:45.653Z,15.30
2022-09-14T03:12:12.965Z,15.30
2022-09-14T03:14:40.313Z,15.40
2022-09-14T03:17:07.648Z,15.30
2022-09-14T03:19:41.228Z,15.40
2022-09-14T03:22:08.552Z,15.30
2022-09-14T03:24:36.909Z,15.30
2022-09-14T03:27:04.568Z,15.30
2022-09-14T03:29:31.945Z,15.40
2022-09-14T03:31:59.259Z,15.30
2022-09-14T03:34:26.664Z,15.30
2022-09-14T03:36:53.999Z,15.40
2022-09-14T03:39:21.820Z,15.30
2022-09-14T03:41:49.155Z,15.30
2022-09-14T03:44:16.616Z,15.40
2022-09-14T03:46:44.463Z,15.30
2022-09-14T03:49:11.872Z,15.30
2022-09-14T03:51:39.168Z,15.30
2022-09-14T03:54:06.585Z,15.30
2022-09-14T03:56:33.953Z,15.30
2022-09-14T03:59:01.338Z,15.30
2022-09-14T04:01:28.652Z,15.30
2022-09-14T04:03:55.995Z,15.30
2022-09-14T04:06:23.387Z,15.30
2022-09-14T04:08:50.768Z,15.30
2022-09-14T04:11:21.096Z,15.20
2022-09-14T04:13:48.865Z,15.30
2022-09-14T04:16:18.374Z,15.30
2022-09-14T04:18:45.810Z,15.30
2022-09-14T04:21:16.667Z,15.20
2022-09-14T04:24:10.552Z,15.30
2022-09-14T04:26:32.535Z,15.30
2022-09-14T04:29:00.425Z,15.30
2022-09-14T04:31:27.853Z,15.30
2022-09-14T04:33:57.159Z,15.30
2022-09-14T04:36:28.594Z,15.30
2022-09-14T04:38:58.385Z,15.30
2022-09-14T04:41:26.558Z,15.30
2022-09-14T04:43:55.360Z,15.30
2022-09-14T04:46:25.074Z,15.30
2022-09-14T04:48:52.483Z,15.30
2022-09-14T04:51:23.478Z,15.40
2022-09-14T04:53:52.810Z,15.40
2022-09-14T04:56:22.432Z,15.50
2022-09-14T04:58:55.736Z,15.50
2022-09-14T05:01:26.076Z,15.50
2022-09-14T05:03:54.469Z,15.50
2022-09-14T05:06:24.108Z,15.60
2022-09-14T05:08:52.716Z,15.60
2022-09-14T05:11:22.742Z,15.60
2022-09-14T05:13:51.085Z,15.60
2022-09-14T05:16:36.183Z,15.60
2022-09-14T05:19:06.830Z,15.60
2022-09-14T05:21:36.880Z,15.70
2022-09-14T05:24:14.903Z,15.70
2022-09-14T05:26:43.790Z,15.70
2022-09-14T05:29:17.187Z,15.70
2022-09-14T05:31:45.439Z,15.70
2022-09-14T05:34:13.776Z,15.80
2022-09-14T05:36:41.558Z,15.80
2022-09-14T05:39:10.205Z,15.90
2022-09-14T05:41:37.790Z,15.90
2022-09-14T05:44:05.908Z,15.90
2022-09-14T05:46:33.668Z,15.90
2022-09-14T05:49:01.234Z,16.00
2022-09-14T05:51:28.904Z,16.00
2022-09-14T05:53:58.146Z,16.10
2022-09-14T05:56:28.485Z,16.10
2022-09-14T05:58:55.967Z,16.10
2022-09-14T06:01:26.341Z,16.20
2022-09-14T06:03:55.598Z,16.30
2022-09-14T06:06:23.723Z,16.30
2022-09-14T06:08:53.804Z,16.40
2022-09-14T06:11:29.697Z,16.40
2022-09-14T06:13:57.544Z,16.50
2022-09-14T06:16:26.090Z,16.60
2022-09-14T06:18:55.533Z,16.70
2022-09-14T06:21:23.450Z,16.70
2022-09-14T06:23:52.029Z,16.70
2022-09-14T06:26:19.863Z,16.70
2022-09-14T06:28:47.379Z,16.80
2022-09-14T06:31:15.690Z,16.80
2022-09-14T06:33:47.466Z,16.80
2022-09-14T06:36:18.215Z,16.80
2022-09-14T06:38:48.962Z,16.80
2022-09-14T06:41:20.527Z,16.60
2022-09-14T06:43:48.994Z,16.60
2022-09-14T06:46:27.799Z,16.50
2022-09-14T06:49:07.661Z,16.40
2022-09-14T06:51:37.216Z,16.40
2022-09-14T06:54:05.927Z,16.40
2022-09-14T06:56:36.305Z,16.30
2022-09-14T06:59:04.894Z,16.30
2022-09-14T07:01:32.322Z,16.30
2022-09-14T07:04:01.707Z,16.30
2022-09-14T07:06:31.529Z,16.30
2022-09-14T07:08:58.958Z,16.40
2022-09-14T07:11:27.587Z,16.40
2022-09-14T07:13:57.325Z,16.40
2022-09-14T07:16:29.435Z,16.50
2022-09-14T07:18:58.587Z,16.60
2022-09-14T07:21:26.546Z,16.70
2022-09-14T07:23:55.689Z,16.70
2022-09-14T07:26:26.352Z,16.80
2022-09-14T07:28:58.007Z,16.80
2022-09-14T07:31:47.952Z,16.90
2022-09-14T07:34:16.279Z,16.80
2022-09-14T07:36:43.724Z,16.80
2022-09-14T07:39:16.025Z,16.70
2022-09-14T07:41:44.299Z,16.70
2022-09-14T07:44:14.971Z,16.80
2022-09-14T07:46:44.583Z,16.80
2022-09-14T07:49:12.426Z,16.80
2022-09-14T07:51:40.325Z,16.70
2022-09-14T07:54:11.247Z,16.70
2022-09-14T07:56:38.892Z,16.70
2022-09-14T08:01:53.710Z,16.70
2022-09-14T08:04:21.340Z,16.70
2022-09-14T08:06:48.654Z,16.80
2022-09-14T08:09:16.019Z,16.90
2022-09-14T08:11:43.320Z,16.90
2022-09-14T08:14:12.657Z,17.00
2022-09-14T08:16:40.866Z,17.20
2022-09-14T08:19:13.204Z,17.30
2022-09-14T08:21:45.654Z,17.40
2022-09-14T08:24:19.033Z,17.20
2022-09-14T08:26:47.501Z,17.20
2022-09-14T08:29:16.863Z,17.20
2022-09-14T08:31:45.947Z,17.10
2022-09-14T08:34:14.803Z,17.10
2022-09-14T08:36:43.515Z,17.00
2022-09-14T08:39:12.408Z,17.00
2022-09-14T08:42:00.561Z,17.00
2022-09-14T08:44:52.975Z,17.10
2022-09-14T08:47:36.829Z,17.10
2022-09-14T08:50:20.843Z,17.00
2022-09-14T08:52:52.915Z,17.10
2022-09-14T08:55:41.563Z,17.20
2022-09-14T08:58:35.052Z,17.30
2022-09-14T09:01:19.046Z,17.20
2022-09-14T09:03:51.917Z,17.30
2022-09-14T09:06:53.515Z,17.10
2022-09-14T09:09:42.718Z,17.10
2022-09-14T09:12:15.811Z,17.00
2022-09-14T09:14:57.036Z,16.80
2022-09-14T09:17:44.135Z,16.80
2022-09-14T09:20:46.312Z,16.90
2022-09-14T09:23:19.161Z,17.00
2022-09-14T09:25:52.430Z,17.10
2022-09-14T09:28:21.204Z,17.10
2022-09-14T09:30:48.660Z,17.10
2022-09-14T09:33:20.049Z,17.10
2022-09-14T09:36:18.442Z,17.10
2022-09-14T09:38:45.998Z,17.30
2022-09-14T09:41:18.940Z,17.40
2022-09-14T09:44:06.866Z,17.50
2022-09-14T09:46:36.160Z,17.60
2022-09-14T09:49:14.634Z,17.70
2022-09-14T09:51:42.311Z,17.80
2022-09-14T09:54:30.959Z,17.80
2022-09-14T09:57:01.182Z,17.80
2022-09-14T09:59:40.574Z,17.60
2022-09-14T10:02:30.017Z,17.50
2022-09-14T10:05:24.638Z,17.50
2022-09-14T10:08:15.162Z,17.50
2022-09-14T10:10:44.628Z,17.50
2022-09-14T10:13:38.766Z,17.60
2022-09-14T10:16:30.803Z,17.60
2022-09-14T10:18:59.479Z,17.40
2022-09-14T10:21:26.870Z,17.50
2022-09-14T10:24:20.196Z,17.60
2022-09-14T10:26:47.530Z,17.60
2022-09-14T10:29:38.050Z,17.70
2022-09-14T10:32:24.063Z,17.70
2022-09-14T10:34:51.884Z,17.90
2022-09-14T10:37:32.104Z,18.00
2022-09-14T10:40:18.835Z,18.10
2022-09-14T10:43:14.718Z,18.00
2022-09-14T10:45:51.122Z,18.00
2022-09-14T10:48:43.659Z,17.90
2022-09-14T10:51:40.186Z,17.80
2022-09-14T10:54:50.634Z,17.70
2022-09-14T10:57:48.022Z,17.60
2022-09-14T11:00:22.136Z,17.60
2022-09-14T11:03:12.839Z,17.60
2022-09-14T11:06:02.596Z,17.60
2022-09-14T11:09:07.797Z,17.70
2022-09-14T11:12:00.603Z,17.60
2022-09-14T11:14:52.960Z,17.60
2022-09-14T11:17:55.816Z,17.60
2022-09-14T11:21:14.924Z,17.50
2022-09-14T11:24:18.536Z,17.50
2022-09-14T11:26:59.976Z,17.60
2022-09-14T11:29:49.574Z,17.70
2022-09-14T11:32:33.664Z,17.70
2022-09-14T11:35:14.194Z,17.70
2022-09-14T11:37:49.621Z,17.70
2022-09-14T11:41:02.608Z,17.70
2022-09-14T11:43:56.856Z,17.70
2022-09-14T11:46:36.383Z,17.60
2022-09-14T11:49:27.730Z,17.70
2022-09-14T11:52:10.075Z,17.70
2022-09-14T11:54:44.618Z,17.80
2022-09-14T11:57:23.878Z,17.80
2022-09-14T11:59:57.206Z,17.80
2022-09-14T12:02:58.559Z,17.80
2022-09-14T12:05:29.874Z,17.90
2022-09-14T12:08:04.270Z,17.80
2022-09-14T12:10:31.916Z,17.90
2022-09-14T12:13:20.226Z,17.90
2022-09-14T12:15:47.626Z,18.10
2022-09-14T12:18:24.523Z,18.10
2022-09-14T12:21:24.187Z,18.00
2022-09-14T12:23:57.888Z,18.10
2022-09-14T12:26:31.060Z,18.10
2022-09-14T12:29:05.876Z,18.00
2022-09-14T12:32:05.455Z,18.00
2022-09-14T12:34:33.758Z,18.10
2022-09-14T12:37:09.951Z,18.00
2022-09-14T12:39:59.232Z,18.00
2022-09-14T12:42:29.951Z,18.00
2022-09-14T12:44:57.382Z,18.20
2022-09-14T12:47:51.722Z,18.20
2022-09-14T12:50:22.566Z,18.40
2022-09-14T12:53:21.511Z,18.40
2022-09-14T12:56:05.265Z,18.50
2022-09-14T12:58:56.711Z,18.60
2022-09-14T13:01:37.234Z,18.40
2022-09-14T13:04:12.573Z,18.30
2022-09-14T13:06:44.800Z,18.30
2022-09-14T13:09:22.844Z,18.40
2022-09-14T13:12:05.733Z,18.30
2022-09-14T13:14:54.654Z,18.20
2022-09-14T13:17:22.953Z,18.00
2022-09-14T13:20:02.697Z,17.90
2022-09-14T13:22:32.333Z,17.90
2022-09-14T13:25:03.869Z,17.90
2022-09-14T13:27:37.081Z,17.80
2022-09-14T13:30:27.521Z,17.60
2022-09-14T13:32:56.884Z,17.70
2022-09-14T13:36:04.943Z,17.60
2022-09-14T13:38:36.662Z,17.60
2022-09-14T13:41:11.204Z,17.60
2022-09-14T13:43:40.109Z,17.60
2022-09-14T13:46:08.360Z,17.70
2022-09-14T13:48:40.281Z,17.80
2022-09-14T13:51:13.570Z,17.80
2022-09-14T13:53:52.471Z,17.80
2022-09-14T13:56:31.586Z,17.80
2022-09-14T13:59:28.085Z,17.80
2022-09-14T14:02:00.695Z,17.90
2022-09-14T14:04:39.351Z,17.90
2022-09-14T14:07:22.035Z,17.80
2022-09-14T14:09:55.487Z,17.70
2022-09-14T14:12:31.542Z,17.70
2022-09-14T14:15:23.012Z,17.70
2022-09-14T14:17:51.050Z,17.70
2022-09-14T14:20:31.663Z,17.50
2022-09-14T14:23:21.435Z,17.40
2022-09-14T14:26:07.350Z,17.30
2022-09-14T14:28:34.850Z,17.20
2022-09-14T14:31:07.698Z,17.20
2022-09-14T14:33:37.048Z,17.10
2022-09-14T14:36:09.791Z,17.10
2022-09-14T14:38:37.586Z,17.00
2022-09-14T14:41:05.286Z,17.00
2022-09-14T14:43:32.779Z,17.00
2022-09-14T14:46:01.368Z,17.00
2022-09-14T14:48:29.756Z,16.90
2022-09-14T14:50:57.159Z,16.90
2022-09-14T14:53:25.820Z,16.90
2022-09-14T14:55:53.869Z,17.00
2022-09-14T14:58:22.060Z,17.10
2022-09-14T15:00:50.270Z,17.10
2022-09-14T15:03:19.283Z,17.10
2022-09-14T15:05:49.480Z,17.20
2022-09-14T15:08:19.981Z,17.20
2022-09-14T15:10:49.038Z,17.20
2022-09-14T15:13:16.403Z,17.20
2022-09-14T15:15:44.506Z,17.10
2022-09-14T15:18:11.893Z,17.10
2022-09-14T15:20:39.207Z,17.00
2022-09-14T15:23:06.678Z,17.00
2022-09-14T15:25:33.980Z,16.90
2022-09-14T15:28:01.524Z,16.80
2022-09-14T15:30:28.864Z,16.70
2022-09-14T15:32:56.234Z,16.70
2022-09-14T15:35:23.936Z,16.70
2022-09-14T15:37:51.265Z,16.70
2022-09-14T15:40:18.713Z,16.70
2022-09-14T15:42:46.124Z,16.60
2022-09-14T15:45:14.450Z,16.70
2022-09-14T15:47:42.938Z,16.70
2022-09-14T15:50:11.422Z,16.70
2022-09-14T15:52:39.552Z,16.70
2022-09-14T15:55:09.428Z,16.60
2022-09-14T15:57:37.486Z,16.60
2022-09-14T16:00:08.171Z,16.60
2022-09-14T16:02:44.256Z,16.50
2022-09-14T16:05:12.974Z,16.60
2022-09-14T16:07:40.491Z,16.50
2022-09-14T16:10:08.865Z,16.50
2022-09-14T16:12:36.174Z,16.40
2022-09-14T16:15:03.680Z,16.40
2022-09-14T16:17:31.000Z,16.30
2022-09-14T16:19:58.407Z,16.30
2022-09-14T16:22:25.653Z,16.30
2022-09-14T16:24:53.003Z,16.30
2022-09-14T16:27:20.325Z,16.30
2022-09-14T16:29:47.756Z,16.30
2022-09-14T16:32:15.220Z,16.30
2022-09-14T16:34:42.886Z,16.20
2022-09-14T16:37:10.186Z,16.20
2022-09-14T16:39:37.545Z,16.20
2022-09-14T16:42:05.308Z,16.10
2022-09-14T16:44:33.064Z,16.20
2022-09-14T16:47:00.362Z,16.10
2022-09-14T16:49:28.578Z,16.10
2022-09-14T16:51:57.124Z,16.10
2022-09-14T16:54:26.067Z,16.00
2022-09-14T16:56:58.115Z,16.00
2022-09-14T16:59:26.185Z,16.00
2022-09-14T17:01:55.201Z,16.00
2022-09-14T17:04:23.766Z,16.00
2022-09-14T17:06:52.202Z,16.00
2022-09-14T17:09:23.347Z,15.90
2022-09-14T17:11:51.496Z,15.90
2022-09-14T17:14:21.401Z,15.70
2022-09-14T17:16:49.203Z,15.70
2022-09-14T17:19:17.061Z,15.70
2022-09-14T17:21:45.587Z,15.70
2022-09-14T17:24:14.545Z,15.70
2022-09-14T17:26:42.674Z,15.70
2022-09-14T17:29:10.471Z,15.60
2022-09-14T17:31:40.588Z,15.60
2022-09-14T17:34:10.288Z,15.60
2022-09-14T17:36:38.231Z,15.50
2022-09-14T17:39:11.752Z,15.60
2022-09-14T17:41:42.773Z,15.50
2022-09-14T17:44:12.987Z,15.50
2022-09-14T17:46:48.599Z,15.50
2022-09-14T17:49:18.706Z,15.50
2022-09-14T17:51:45.994Z,15.50
2022-09-14T17:54:13.732Z,15.50
2022-09-14T17:56:41.314Z,15.50
2022-09-14T17:59:12.386Z,15.50
2022-09-14T18:01:39.973Z,15.50
2022-09-14T18:04:10.367Z,15.50
2022-09-14T18:06:41.181Z,15.50
2022-09-14T18:09:17.806Z,15.50
2022-09-14T18:11:46.124Z,15.40
2022-09-14T18:14:14.746Z,15.50
2022-09-14T18:16:43.080Z,15.50
2022-09-14T18:19:11.231Z,15.50
2022-09-14T18:21:38.698Z,15.50
2022-09-14T18:24:06.708Z,15.50
2022-09-14T18:26:34.241Z,15.50
2022-09-14T18:29:03.220Z,15.50
2022-09-14T18:31:30.917Z,15.40
2022-09-14T18:34:00.318Z,15.40
2022-09-14T18:36:29.637Z,15.40
2022-09-14T18:39:00.540Z,15.40
2022-09-14T18:41:31.160Z,15.40
2022-09-14T18:43:58.918Z,15.40
2022-09-14T18:46:28.289Z,15.30
2022-09-14T18:48:58.432Z,15.30
2022-09-14T18:51:27.127Z,15.30
2022-09-14T18:53:59.627Z,15.30
2022-09-14T18:56:28.043Z,15.30
2022-09-14T18:58:56.282Z,15.20
2022-09-14T19:01:23.852Z,15.20
2022-09-14T19:03:51.444Z,15.20
2022-09-14T19:06:19.760Z,15.20
2022-09-14T19:08:47.409Z,15.20
2022-09-14T19:11:18.577Z,15.20
2022-09-14T19:13:46.968Z,15.20
2022-09-14T19:16:19.011Z,15.20
2022-09-14T19:18:48.533Z,15.30
2022-09-14T19:21:23.428Z,15.20
2022-09-14T19:24:10.467Z,15.20
2022-09-14T19:26:45.317Z,15.20
2022-09-14T19:29:15.449Z,15.20
2022-09-14T19:31:43.021Z,15.20
2022-09-14T19:34:11.569Z,15.30
2022-09-14T19:36:38.921Z,15.20
2022-09-14T19:39:06.398Z,15.20
2022-09-14T19:41:34.576Z,15.20
2022-09-14T19:44:03.158Z,15.10
2022-09-14T19:46:31.329Z,15.10
2022-09-14T19:48:59.309Z,15.10
2022-09-14T19:51:29.589Z,15.10
2022-09-14T19:53:59.505Z,15.10
2022-09-14T19:56:29.763Z,15.10
2022-09-14T19:58:59.401Z,15.10
2022-09-14T20:01:28.616Z,15.10
2022-09-14T20:03:56.219Z,15.10
2022-09-14T20:06:32.555Z,15.10
2022-09-14T20:09:06.695Z,15.10
2022-09-14T20:11:36.268Z,15.00
2022-09-14T20:14:05.951Z,15.00
2022-09-14T20:16:36.107Z,15.00
2022-09-14T20:19:07.548Z,15.00
2022-09-14T20:21:38.604Z,15.00
2022-09-14T20:24:17.115Z,15.10
2022-09-14T20:26:49.561Z,15.00
2022-09-14T20:29:17.760Z,15.00
2022-09-14T20:31:45.802Z,15.00
2022-09-14T20:34:14.221Z,15.00
2022-09-14T20:36:41.481Z,15.00
2022-09-14T20:39:09.041Z,15.00
2022-09-14T20:41:36.850Z,15.00
2022-09-14T20:44:04.733Z,15.00
2022-09-14T20:46:35.398Z,15.00
2022-09-14T20:49:04.488Z,14.90
2022-09-14T20:51:32.251Z,14.90
2022-09-14T20:53:59.591Z,14.90
2022-09-14T20:56:30.017Z,14.90
2022-09-14T20:58:59.825Z,14.90
2022-09-14T21:01:30.050Z,14.90
2022-09-14T21:04:04.183Z,14.90
2022-09-14T21:06:32.490Z,14.90
2022-09-14T21:09:01.034Z,14.90
2022-09-14T21:11:28.544Z,14.90
2022-09-14T21:13:57.700Z,14.90
2022-09-14T21:16:31.406Z,14.80
2022-09-14T21:19:20.317Z,14.80
2022-09-14T21:21:49.208Z,14.80
2022-09-14T21:24:18.322Z,14.70
2022-09-14T21:26:46.052Z,14.70
2022-09-14T21:29:20.960Z,14.70
2022-09-14T21:31:48.843Z,14.70
2022-09-14T21:34:16.354Z,14.60
2022-09-14T21:36:46.233Z,14.60
2022-09-14T21:39:24.755Z,14.60
2022-09-14T21:41:58.340Z,14.50
2022-09-14T21:44:35.434Z,14.50
2022-09-14T21:47:04.419Z,14.50
2022-09-14T21:49:32.201Z,14.50
2022-09-14T21:51:59.515Z,14.40
2022-09-14T21:54:27.455Z,14.40
2022-09-14T21:56:55.095Z,14.40
2022-09-14T21:59:23.764Z,14.40
2022-09-14T22:01:51.715Z,14.40
2022-09-14T22:04:21.604Z,14.40
2022-09-14T22:06:51.473Z,14.40
2022-09-14T22:09:21.070Z,14.40
2022-09-14T22:11:49.008Z,14.40
2022-09-14T22:14:18.887Z,14.30
2022-09-14T22:16:47.616Z,14.30
2022-09-14T22:19:28.232Z,14.20
2022-09-14T22:21:56.691Z,14.20
2022-09-14T22:24:36.364Z,14.20
2022-09-14T22:27:09.866Z,14.20
2022-09-14T22:29:43.834Z,14.20
2022-09-14T22:32:12.195Z,14.20
2022-09-14T22:34:41.582Z,14.20
2022-09-14T22:37:09.180Z,14.20
2022-09-14T22:39:36.711Z,14.20
2022-09-14T22:42:04.479Z,14.20
2022-09-14T22:44:31.943Z,14.20
2022-09-14T22:46:59.343Z,14.20
2022-09-14T22:49:26.726Z,14.20
2022-09-14T22:51:54.074Z,14.20
2022-09-14T22:54:21.780Z,14.20
2022-09-14T22:56:49.243Z,14.20
2022-09-14T22:59:16.628Z,14.20
2022-09-14T23:01:44.079Z,14.20
2022-09-14T23:04:13.515Z,14.20
2022-09-14T23:06:44.493Z,14.10
2022-09-14T23:09:14.813Z,14.10
2022-09-14T23:11:44.512Z,14.10
2022-09-14T23:14:13.191Z,14.20
2022-09-14T23:16:41.598Z,14.20
2022-09-14T23:19:12.210Z,14.20
2022-09-14T23:21:39.591Z,14.20
2022-09-14T23:24:07.351Z,14.20
2022-09-14T23:26:34.687Z,14.20
2022-09-14T23:29:12.753Z,14.20
2022-09-14T23:31:40.059Z,14.10
2022-09-14T23:34:07.467Z,14.20
2022-09-14T23:36:35.143Z,14.20
2022-09-14T23:39:02.831Z,14.10
2022-09-14T23:41:30.274Z,14.10
2022-09-14T23:43:57.647Z,14.20
2022-09-14T23:46:25.630Z,14.20
2022-09-14T23:48:53.451Z,14.20
2022-09-14T23:51:20.970Z,14.20
2022-09-14T23:53:48.347Z,14.20
2022-09-14T23:56:15.832Z,14.20
2022-09-14T23:58:43.415Z,14.20
